createdAt,value
2023-03-22T00:01:50.172Z,10.05
2023-03-22T00:04:17.352Z,11.88
2023-03-22T00:06:44.519Z,15.18
2023-03-22T00:09:11.692Z,14.48
2023-03-22T00:11:38.854Z,15.13
2023-03-22T00:14:06.449Z,12.73
2023-03-22T00:16:33.737Z,9.68
2023-03-22T00:19:01.402Z,8.05
2023-03-22T00:21:28.514Z,6.95
2023-03-22T00:23:55.756Z,6.80
2023-03-22T00:26:22.969Z,4.53
2023-03-22T00:28:50.247Z,5.13
2023-03-22T00:31:17.644Z,4.65
2023-03-22T00:33:44.797Z,4.38
2023-03-22T00:36:12.537Z,3.50
2023-03-22T00:38:44.395Z,3.17
2023-03-22T00:41:14.298Z,4.40
2023-03-22T00:43:41.949Z,4.63
2023-03-22T00:46:10.486Z,4.55
2023-03-22T00:48:38.188Z,4.40
2023-03-22T00:51:06.266Z,4.65
2023-03-22T00:53:33.934Z,4.05
2023-03-22T00:56:01.283Z,4.40
2023-03-22T00:58:35.175Z,4.30
2023-03-22T01:01:02.675Z,4.03
2023-03-22T01:03:29.920Z,4.38
2023-03-22T01:05:57.227Z,4.85
2023-03-22T01:08:25.070Z,4.65
2023-03-22T01:10:52.666Z,3.75
2023-03-22T01:13:19.915Z,4.07
2023-03-22T01:15:51.075Z,4.03
2023-03-22T01:18:19.032Z,4.30
2023-03-22T01:20:46.169Z,4.45
2023-03-22T01:23:13.564Z,4.50
2023-03-22T01:25:41.122Z,4.82
2023-03-22T01:28:09.342Z,4.90
2023-03-22T01:30:37.313Z,5.00
2023-03-22T01:33:05.998Z,4.78
2023-03-22T01:35:35.693Z,4.65
2023-03-22T01:38:03.819Z,4.50
2023-03-22T01:40:33.131Z,5.45
2023-03-22T01:43:02.132Z,6.80
2023-03-22T01:45:53.680Z,6.70
2023-03-22T01:48:37.670Z,7.50
2023-03-22T01:51:08.036Z,6.57
2023-03-22T01:53:49.231Z,7.47
2023-03-22T01:56:19.802Z,6.72
2023-03-22T01:58:49.495Z,7.40
2023-03-22T02:01:22.041Z,5.63
2023-03-22T02:03:59.434Z,4.75
2023-03-22T02:06:30.168Z,5.10
2023-03-22T02:09:08.484Z,5.80
2023-03-22T02:11:41.993Z,6.03
2023-03-22T02:14:37.502Z,7.75
2023-03-22T02:20:58.260Z,7.45
2023-03-22T02:24:15.847Z,7.40
2023-03-22T02:27:06.760Z,7.18
2023-03-22T02:30:14.127Z,6.45
2023-03-22T02:33:05.372Z,6.75
2023-03-22T02:35:46.098Z,6.97
2023-03-22T02:38:24.132Z,7.43
2023-03-22T02:41:23.257Z,7.03
2023-03-22T02:44:04.904Z,6.70
2023-03-22T02:50:57.237Z,6.65
2023-03-22T02:57:41.647Z,7.40
2023-03-22T03:00:28.793Z,6.93
2023-03-22T03:03:59.726Z,7.45
2023-03-22T03:06:32.273Z,7.03
2023-03-22T03:09:05.352Z,7.37
2023-03-22T03:11:32.965Z,6.93
2023-03-22T03:14:01.073Z,7.93
2023-03-22T03:16:31.110Z,7.40
2023-03-22T03:19:01.496Z,7.13
2023-03-22T03:25:54.950Z,7.35
2023-03-22T03:28:39.475Z,6.28
2023-03-22T03:31:17.059Z,6.22
2023-03-22T03:34:00.470Z,6.10
2023-03-22T03:36:30.028Z,5.47
2023-03-22T03:39:14.769Z,5.95
2023-03-22T03:41:46.904Z,6.45
2023-03-22T03:44:15.691Z,6.75
2023-03-22T03:46:47.034Z,7.93
2023-03-22T03:49:16.960Z,8.13
2023-03-22T03:51:52.625Z,7.85
2023-03-22T03:54:20.522Z,9.30
2023-03-22T03:56:51.163Z,8.48
2023-03-22T03:59:21.184Z,8.88
2023-03-22T04:06:20.437Z,8.20
2023-03-22T04:13:06.458Z,7.47
2023-03-22T04:20:57.549Z,7.05
2023-03-22T04:23:26.768Z,7.82
2023-03-22T04:25:54.856Z,7.35
2023-03-22T04:28:33.907Z,7.68
2023-03-22T04:31:03.558Z,7.90
2023-03-22T04:34:05.964Z,7.93
2023-03-22T04:36:49.944Z,7.47
2023-03-22T04:39:26.640Z,7.03
2023-03-22T04:42:20.291Z,7.55
2023-03-22T04:44:49.787Z,8.50
2023-03-22T04:47:18.472Z,8.15
2023-03-22T04:49:45.885Z,7.80
2023-03-22T04:52:15.788Z,7.03
2023-03-22T04:54:50.122Z,7.50
2023-03-22T04:57:19.553Z,7.57
2023-03-22T04:59:51.435Z,6.85
2023-03-22T05:02:30.874Z,8.13
2023-03-22T05:05:02.619Z,9.55
2023-03-22T05:07:36.119Z,10.35
2023-03-22T05:10:18.687Z,11.80
2023-03-22T05:12:48.923Z,12.55
2023-03-22T05:15:28.388Z,11.63
2023-03-22T05:17:55.997Z,12.05
2023-03-22T05:20:25.417Z,12.13
2023-03-22T05:23:21.578Z,11.48
2023-03-22T05:25:54.460Z,12.45
2023-03-22T05:28:22.821Z,12.48
2023-03-22T05:31:18.099Z,12.27
2023-03-22T05:33:58.298Z,13.60
2023-03-22T05:36:29.953Z,12.48
2023-03-22T05:39:10.129Z,12.18
2023-03-22T05:41:37.580Z,12.32
2023-03-22T05:44:05.617Z,12.98
2023-03-22T05:46:37.405Z,13.32
2023-03-22T05:49:27.354Z,12.95
2023-03-22T05:51:55.559Z,13.77
2023-03-22T05:54:27.910Z,14.10
2023-03-22T05:56:55.876Z,12.60
2023-03-22T05:59:25.127Z,11.85
2023-03-22T06:01:52.701Z,12.15
2023-03-22T06:04:23.353Z,12.70
2023-03-22T06:07:00.719Z,13.50
2023-03-22T06:09:41.789Z,13.18
2023-03-22T06:12:14.946Z,13.00
2023-03-22T06:14:44.703Z,12.52
2023-03-22T06:17:38.910Z,13.02
2023-03-22T06:20:11.040Z,11.88
2023-03-22T06:22:41.238Z,11.50
2023-03-22T06:25:09.159Z,11.65
2023-03-22T06:27:41.093Z,10.27
2023-03-22T06:30:09.303Z,11.20
2023-03-22T06:32:50.703Z,10.10
2023-03-22T06:35:18.313Z,10.70
2023-03-22T06:37:46.782Z,10.55
2023-03-22T06:40:14.047Z,10.35
2023-03-22T06:42:41.516Z,10.63
2023-03-22T06:45:16.664Z,10.77
2023-03-22T06:47:45.651Z,10.10
2023-03-22T06:50:28.897Z,9.95
2023-03-22T06:53:06.620Z,9.57
2023-03-22T06:55:35.254Z,9.77
2023-03-22T06:58:12.093Z,9.60
2023-03-22T07:00:39.887Z,10.10
2023-03-22T07:03:08.591Z,9.90
2023-03-22T07:05:42.553Z,10.05
2023-03-22T07:08:10.848Z,10.10
2023-03-22T07:10:44.045Z,10.13
2023-03-22T07:13:11.284Z,12.13
2023-03-22T07:15:38.931Z,11.20
2023-03-22T07:18:14.174Z,12.23
2023-03-22T07:20:42.724Z,11.30
2023-03-22T07:23:11.097Z,12.77
2023-03-22T07:25:47.737Z,11.63
2023-03-22T07:28:33.824Z,11.27
2023-03-22T07:31:11.839Z,11.95
2023-03-22T07:36:26.270Z,10.70
2023-03-22T07:38:54.933Z,11.85
2023-03-22T07:41:30.428Z,10.80
2023-03-22T07:44:23.932Z,11.18
2023-03-22T07:47:11.447Z,11.13
2023-03-22T07:49:56.999Z,10.48
2023-03-22T07:52:31.170Z,12.35
2023-03-22T07:54:58.836Z,10.70
2023-03-22T07:58:17.038Z,10.13
2023-03-22T08:00:44.713Z,11.00
2023-03-22T08:03:50.449Z,10.88
2023-03-22T08:06:42.937Z,12.30
2023-03-22T08:09:11.822Z,11.18
2023-03-22T08:11:39.125Z,10.95
2023-03-22T08:14:07.134Z,11.52
2023-03-22T08:16:38.700Z,11.50
2023-03-22T08:19:06.411Z,11.13
2023-03-22T08:21:37.394Z,10.68
2023-03-22T08:24:07.600Z,10.68
2023-03-22T08:26:51.215Z,11.43
2023-03-22T08:29:28.568Z,11.13
2023-03-22T08:31:56.710Z,10.98
2023-03-22T08:34:23.980Z,12.27
2023-03-22T08:36:52.192Z,11.43
2023-03-22T08:39:19.249Z,11.13
2023-03-22T08:42:05.133Z,10.98
2023-03-22T08:44:32.762Z,11.75
2023-03-22T08:47:03.484Z,11.20
2023-03-22T08:49:31.706Z,11.90
2023-03-22T08:54:55.743Z,12.45
2023-03-22T08:57:50.635Z,11.73
2023-03-22T09:00:20.725Z,12.02
2023-03-22T09:02:59.501Z,12.43
2023-03-22T09:05:27.277Z,11.35
2023-03-22T09:07:54.655Z,11.43
2023-03-22T09:10:29.402Z,11.55
2023-03-22T09:12:56.606Z,11.73
2023-03-22T09:15:24.067Z,11.02
2023-03-22T09:18:06.285Z,12.00
2023-03-22T09:20:34.814Z,12.20
2023-03-22T09:23:02.858Z,11.02
2023-03-22T09:25:30.693Z,12.02
2023-03-22T09:27:57.879Z,10.93
2023-03-22T09:30:26.552Z,11.60
2023-03-22T09:32:54.330Z,11.00
2023-03-22T09:35:22.383Z,11.23
2023-03-22T09:38:01.254Z,11.63
2023-03-22T09:40:33.296Z,11.05
2023-03-22T09:43:06.139Z,11.50
2023-03-22T09:45:43.115Z,9.68
2023-03-22T09:48:24.722Z,8.73
2023-03-22T09:50:53.467Z,8.60
2023-03-22T09:53:23.658Z,7.88
2023-03-22T09:56:17.795Z,7.28
2023-03-22T09:58:44.920Z,7.47
2023-03-22T10:01:37.836Z,6.95
2023-03-22T10:04:08.365Z,7.50
2023-03-22T10:06:35.721Z,6.45
2023-03-22T10:09:28.158Z,6.40
2023-03-22T10:12:05.382Z,5.68
2023-03-22T10:14:36.060Z,5.05
2023-03-22T10:17:16.855Z,4.60
2023-03-22T10:20:05.870Z,4.35
2023-03-22T10:22:36.761Z,4.03
2023-03-22T10:25:08.179Z,4.03
2023-03-22T10:27:37.757Z,3.90
2023-03-22T10:30:08.276Z,3.65
2023-03-22T10:32:57.162Z,3.45
2023-03-22T10:35:25.609Z,3.50
2023-03-22T10:37:54.037Z,3.35
2023-03-22T10:40:27.404Z,3.08
2023-03-22T10:43:03.901Z,3.75
2023-03-22T10:45:35.256Z,3.55
2023-03-22T10:48:11.353Z,3.08
2023-03-22T10:50:42.426Z,3.33
2023-03-22T10:53:27.976Z,3.33
2023-03-22T10:55:55.490Z,3.35
2023-03-22T10:58:28.775Z,3.05
2023-03-22T11:01:05.285Z,2.95
2023-03-22T11:03:35.743Z,3.30
2023-03-22T11:06:18.433Z,3.38
2023-03-22T11:08:50.259Z,3.20
2023-03-22T11:11:27.100Z,3.47
2023-03-22T11:14:08.968Z,3.25
2023-03-22T11:16:53.286Z,3.63
2023-03-22T11:19:29.638Z,3.38
2023-03-22T11:21:58.508Z,3.65
2023-03-22T11:24:32.466Z,3.63
2023-03-22T11:27:07.216Z,3.47
2023-03-22T11:29:43.739Z,3.35
2023-03-22T11:32:38.898Z,3.40
2023-03-22T11:35:14.730Z,3.70
2023-03-22T11:37:48.187Z,3.38
2023-03-22T11:40:22.410Z,3.15
2023-03-22T11:42:54.503Z,3.15
2023-03-22T11:45:49.913Z,3.20
2023-03-22T11:48:24.224Z,2.83
2023-03-22T11:50:55.832Z,3.40
2023-03-22T11:53:27.163Z,3.58
2023-03-22T11:55:57.945Z,3.45
2023-03-22T11:58:43.307Z,3.30
2023-03-22T12:01:22.208Z,3.17
2023-03-22T12:03:55.158Z,3.25
2023-03-22T12:06:30.223Z,3.35
2023-03-22T12:09:38.597Z,3.75
2023-03-22T12:12:13.345Z,3.75
2023-03-22T12:15:07.341Z,3.30
2023-03-22T12:17:53.240Z,2.90
2023-03-22T12:20:57.482Z,3.60
2023-03-22T12:23:28.553Z,3.58
2023-03-22T12:25:55.699Z,3.20
2023-03-22T12:28:30.341Z,2.97
2023-03-22T12:30:59.270Z,2.92
2023-03-22T12:33:45.710Z,2.58
2023-03-22T12:36:19.768Z,2.72
2023-03-22T12:38:50.221Z,2.70
2023-03-22T12:41:34.756Z,3.00
2023-03-22T12:44:27.116Z,2.78
2023-03-22T12:47:06.704Z,2.60
2023-03-22T12:50:03.173Z,2.70
2023-03-22T12:52:45.704Z,2.70
2023-03-22T12:55:27.662Z,1.95
2023-03-22T12:57:55.888Z,2.20
2023-03-22T13:00:49.634Z,2.10
2023-03-22T13:03:17.855Z,2.17
2023-03-22T13:05:48.378Z,2.13
2023-03-22T13:08:24.687Z,2.20
2023-03-22T13:10:59.812Z,1.83
2023-03-22T13:13:27.980Z,2.00
2023-03-22T13:16:11.221Z,1.70
2023-03-22T13:21:15.508Z,1.98
2023-03-22T13:24:06.168Z,2.05
2023-03-22T13:26:51.769Z,1.90
2023-03-22T13:29:25.766Z,2.00
2023-03-22T13:32:03.781Z,2.10
2023-03-22T13:34:44.701Z,1.98
2023-03-22T13:37:42.212Z,2.03
2023-03-22T13:40:35.094Z,2.13
2023-03-22T13:43:26.105Z,2.17
2023-03-22T13:46:18.146Z,2.15
2023-03-22T13:48:48.794Z,1.83
2023-03-22T13:51:30.547Z,2.50
2023-03-22T13:54:13.614Z,2.20
2023-03-22T13:57:01.656Z,2.30
2023-03-22T14:00:11.168Z,2.58
2023-03-22T14:02:43.068Z,2.50
2023-03-22T14:05:16.848Z,2.50
2023-03-22T14:07:49.539Z,2.35
2023-03-22T14:10:19.085Z,2.20
2023-03-22T14:12:54.926Z,1.80
2023-03-22T14:15:26.849Z,2.50
2023-03-22T14:18:06.341Z,2.30
2023-03-22T14:20:40.008Z,2.33
